Time;durP1;ratioP1;P1;durP2;ratioP2;P2;SDS_P1;SDS_P2;PMS_P1;PMS_P2;Temp;Humidity;BMP_temperature;BMP_pressure;BME280_temperature;BME280_humidity;BME280_pressure;Samples;Min_cycle;Max_cycle;Signal;HPM_P1;HPM_P2
2023/03/16 00:02:09;;;;;;;74.25;16.95;;;;;;;;;;5052402;28;20205;-71
2023/03/16 00:04:37;;;;;;;78.13;18.63;;;;;;;;;;5052662;28;20600;-71
2023/03/16 00:07:23;;;;;;;76.93;16.80;;;;;;;;;;5052606;28;20278;-71
2023/03/16 00:09:50;;;;;;;76.63;18.15;;;;;;;;;;5052117;28;20215;-71
2023/03/16 00:12:19;;;;;;;74.72;16.40;;;;;;;;;;5052169;28;20247;-70
2023/03/16 00:14:47;;;;;;;77.00;18.65;;;;;;;;;;5052196;28;20240;-70
2023/03/16 00:17:18;;;;;;;75.43;16.92;;;;;;;;;;5052101;28;20235;-70
2023/03/16 00:20:07;;;;;;;78.25;17.92;;;;;;;;;;5051991;28;20202;-70
2023/03/16 00:22:35;;;;;;;80.45;18.65;;;;;;;;;;5052396;28;20292;-71
2023/03/16 00:25:03;;;;;;;79.20;17.35;;;;;;;;;;5051984;28;20210;-70
2023/03/16 00:27:30;;;;;;;73.85;16.35;;;;;;;;;;5051988;28;20237;-70
2023/03/16 00:29:57;;;;;;;79.10;18.17;;;;;;;;;;5051907;28;20580;-70
2023/03/16 00:32:25;;;;;;;77.25;17.73;;;;;;;;;;5051912;28;20232;-70
2023/03/16 00:34:52;;;;;;;75.47;17.90;;;;;;;;;;5051923;28;20213;-70
2023/03/16 00:37:22;;;;;;;73.90;17.13;;;;;;;;;;5051719;28;20232;-70
2023/03/16 00:39:50;;;;;;;77.35;15.63;;;;;;;;;;5051788;28;20213;-70
2023/03/16 00:42:18;;;;;;;75.93;18.92;;;;;;;;;;5052010;28;20577;-70
2023/03/16 00:44:46;;;;;;;73.30;16.20;;;;;;;;;;5051980;28;20210;-70
2023/03/16 00:47:14;;;;;;;76.15;16.92;;;;;;;;;;5051468;28;20229;-70
2023/03/16 00:49:41;;;;;;;74.00;16.95;;;;;;;;;;5051356;28;20213;-70
2023/03/16 00:52:13;;;;;;;74.32;16.35;;;;;;;;;;5051504;28;20241;-70
2023/03/16 00:54:41;;;;;;;75.65;16.90;;;;;;;;;;5051863;28;20259;-70
2023/03/16 00:57:10;;;;;;;74.40;16.55;;;;;;;;;;5051534;28;20806;-70
2023/03/16 00:59:38;;;;;;;74.45;15.18;;;;;;;;;;5051327;28;20705;-70
2023/03/16 01:02:05;;;;;;;79.20;17.23;;;;;;;;;;5051686;28;20208;-70
2023/03/16 01:04:34;;;;;;;75.10;16.90;;;;;;;;;;5051441;28;20208;-71
2023/03/16 01:07:01;;;;;;;78.13;17.35;;;;;;;;;;5051608;28;20225;-70
2023/03/16 01:09:28;;;;;;;75.00;17.30;;;;;;;;;;5051339;28;20220;-70
2023/03/16 01:11:56;;;;;;;78.53;16.45;;;;;;;;;;5051308;28;20228;-70
2023/03/16 01:14:24;;;;;;;76.65;18.27;;;;;;;;;;5051542;28;20215;-70
2023/03/16 01:16:51;;;;;;;81.68;18.83;;;;;;;;;;5051305;28;20252;-70
2023/03/16 01:19:18;;;;;;;80.35;19.30;;;;;;;;;;5051270;28;20219;-70
2023/03/16 01:21:45;;;;;;;83.13;19.70;;;;;;;;;;5051359;28;20565;-70
2023/03/16 01:24:12;;;;;;;79.32;19.38;;;;;;;;;;5051625;28;20216;-70
2023/03/16 01:26:40;;;;;;;80.47;18.60;;;;;;;;;;5052323;28;20716;-70
2023/03/16 01:29:07;;;;;;;81.68;18.45;;;;;;;;;;5055030;28;20266;-70
2023/03/16 01:31:36;;;;;;;77.97;18.30;;;;;;;;;;5055171;28;20740;-70
2023/03/16 01:34:03;;;;;;;84.82;19.90;;;;;;;;;;5055483;28;20208;-70
2023/03/16 01:36:30;;;;;;;81.65;19.20;;;;;;;;;;5055441;28;20250;-70
2023/03/16 01:38:57;;;;;;;90.05;19.85;;;;;;;;;;5055153;28;20212;-70
2023/03/16 01:41:25;;;;;;;79.40;18.65;;;;;;;;;;5055353;28;20202;-70
2023/03/16 01:43:57;;;;;;;84.82;19.45;;;;;;;;;;5055087;28;20239;-70
2023/03/16 01:46:26;;;;;;;91.72;20.60;;;;;;;;;;5055140;28;20248;-68
2023/03/16 01:49:00;;;;;;;101.15;22.45;;;;;;;;;;5054961;28;20681;-70
2023/03/16 01:51:30;;;;;;;83.45;18.95;;;;;;;;;;5055141;28;20291;-70
2023/03/16 01:53:58;;;;;;;129.38;23.65;;;;;;;;;;5054868;28;20229;-70
2023/03/16 01:56:27;;;;;;;103.25;19.75;;;;;;;;;;5054803;28;20238;-70
2023/03/16 01:58:57;;;;;;;90.00;19.52;;;;;;;;;;5054442;28;20208;-70
2023/03/16 02:01:25;;;;;;;79.63;18.65;;;;;;;;;;5055026;28;20216;-70
2023/03/16 02:03:54;;;;;;;85.53;20.38;;;;;;;;;;5054884;28;20201;-70
2023/03/16 02:06:23;;;;;;;84.18;21.35;;;;;;;;;;5054825;28;20232;-70
2023/03/16 02:08:54;;;;;;;85.60;21.02;;;;;;;;;;5054395;28;20205;-70
2023/03/16 02:11:21;;;;;;;82.75;17.80;;;;;;;;;;5054650;28;20765;-70
2023/03/16 02:13:49;;;;;;;85.97;19.83;;;;;;;;;;5054705;28;20230;-70
2023/03/16 02:16:18;;;;;;;79.55;18.30;;;;;;;;;;5054666;28;20594;-70
2023/03/16 02:18:46;;;;;;;81.05;20.67;;;;;;;;;;5054278;28;20212;-70
2023/03/16 02:21:18;;;;;;;80.75;18.50;;;;;;;;;;5054469;28;20650;-70
2023/03/16 02:23:49;;;;;;;82.13;20.15;;;;;;;;;;5054381;28;20204;-70
2023/03/16 02:26:21;;;;;;;82.60;20.60;;;;;;;;;;5054587;28;20232;-70
2023/03/16 02:28:54;;;;;;;82.47;20.35;;;;;;;;;;5053952;28;20206;-70
2023/03/16 02:31:23;;;;;;;86.25;21.63;;;;;;;;;;5054372;28;20330;-70
2023/03/16 02:33:51;;;;;;;87.32;20.10;;;;;;;;;;5054188;28;20232;-70
2023/03/16 02:36:19;;;;;;;84.80;21.42;;;;;;;;;;5054237;28;20235;-70
2023/03/16 02:38:46;;;;;;;80.60;18.35;;;;;;;;;;5053842;28;20205;-70
2023/03/16 02:41:16;;;;;;;84.57;20.13;;;;;;;;;;5054227;28;20673;-71
2023/03/16 02:43:45;;;;;;;87.85;18.88;;;;;;;;;;5054129;28;20292;-71
2023/03/16 02:46:12;;;;;;;82.80;20.10;;;;;;;;;;5052066;28;20239;-71
2023/03/16 02:48:44;;;;;;;84.97;20.90;;;;;;;;;;5054007;28;20227;-71
2023/03/16 02:51:11;;;;;;;83.38;18.52;;;;;;;;;;5054163;28;20212;-71
2023/03/16 02:53:38;;;;;;;81.88;18.95;;;;;;;;;;5053742;28;20239;-71
2023/03/16 02:56:05;;;;;;;79.78;17.75;;;;;;;;;;5053684;28;20232;-71
2023/03/16 02:58:32;;;;;;;83.25;18.90;;;;;;;;;;5053727;28;20562;-71
2023/03/16 03:01:00;;;;;;;83.40;21.33;;;;;;;;;;5053732;28;20209;-71
2023/03/16 03:03:27;;;;;;;82.65;20.92;;;;;;;;;;5053938;28;20205;-70
2023/03/16 03:05:55;;;;;;;81.88;20.00;;;;;;;;;;5053541;28;20231;-70
2023/03/16 03:08:22;;;;;;;80.68;19.17;;;;;;;;;;5053614;28;20262;-70
2023/03/16 03:10:50;;;;;;;82.15;18.77;;;;;;;;;;5053258;28;20213;-71
2023/03/16 03:13:17;;;;;;;83.97;19.92;;;;;;;;;;5053365;28;20712;-71
2023/03/16 03:15:44;;;;;;;81.65;18.77;;;;;;;;;;5053273;28;20213;-70
2023/03/16 03:18:13;;;;;;;84.95;20.25;;;;;;;;;;5053445;28;20756;-70
2023/03/16 03:20:40;;;;;;;85.45;21.50;;;;;;;;;;5053297;28;20588;-70
2023/03/16 03:23:08;;;;;;;80.55;18.42;;;;;;;;;;5053474;28;20212;-70
2023/03/16 03:25:35;;;;;;;81.18;20.27;;;;;;;;;;5053312;28;20703;-70
2023/03/16 03:28:04;;;;;;;76.32;17.80;;;;;;;;;;5053224;28;20229;-70
2023/03/16 03:30:31;;;;;;;79.35;18.63;;;;;;;;;;5052907;28;20209;-70
2023/03/16 03:32:58;;;;;;;78.25;18.20;;;;;;;;;;5053286;28;20233;-70
2023/03/16 03:35:25;;;;;;;84.28;20.23;;;;;;;;;;5053162;28;20584;-70
2023/03/16 03:37:53;;;;;;;84.07;18.50;;;;;;;;;;5052908;28;20232;-70
2023/03/16 03:40:22;;;;;;;83.40;19.88;;;;;;;;;;5052924;28;20209;-70
2023/03/16 03:42:50;;;;;;;84.22;19.63;;;;;;;;;;5053206;28;20204;-70
2023/03/16 03:45:17;;;;;;;83.13;18.95;;;;;;;;;;5052923;28;20217;-71
2023/03/16 03:47:44;;;;;;;78.30;18.05;;;;;;;;;;5052876;28;20594;-71
2023/03/16 03:50:12;;;;;;;77.82;17.45;;;;;;;;;;5051830;28;20216;-71
2023/03/16 03:52:39;;;;;;;81.60;18.95;;;;;;;;;;5052602;28;20230;-71
2023/03/16 03:55:07;;;;;;;82.22;18.63;;;;;;;;;;5052986;28;20296;-71
2023/03/16 03:57:36;;;;;;;84.25;20.17;;;;;;;;;;5052805;28;20228;-70
2023/03/16 04:00:06;;;;;;;81.60;18.08;;;;;;;;;;5052229;28;20205;-71
2023/03/16 04:02:33;;;;;;;82.50;18.95;;;;;;;;;;5052572;28;20215;-71
2023/03/16 04:05:00;;;;;;;81.30;19.48;;;;;;;;;;5052421;28;20261;-70
2023/03/16 04:07:27;;;;;;;80.25;19.67;;;;;;;;;;5052633;28;20228;-70
2023/03/16 04:09:55;;;;;;;79.03;17.20;;;;;;;;;;5052158;28;20404;-71
2023/03/16 04:12:22;;;;;;;77.72;16.38;;;;;;;;;;5052394;28;20217;-71
2023/03/16 04:14:50;;;;;;;80.05;16.80;;;;;;;;;;5052365;28;20205;-71
2023/03/16 04:17:17;;;;;;;80.40;18.38;;;;;;;;;;5052110;28;20228;-70
2023/03/16 04:19:45;;;;;;;78.95;18.30;;;;;;;;;;5052132;28;20212;-71
2023/03/16 04:22:12;;;;;;;79.93;17.95;;;;;;;;;;5052097;28;20216;-71
2023/03/16 04:24:41;;;;;;;78.45;18.02;;;;;;;;;;5052223;28;20290;-71
2023/03/16 04:27:10;;;;;;;81.07;18.30;;;;;;;;;;5052301;28;20237;-71
2023/03/16 04:29:38;;;;;;;80.90;18.58;;;;;;;;;;5051853;28;20208;-71
2023/03/16 04:32:07;;;;;;;82.22;19.10;;;;;;;;;;5051930;28;20213;-71
2023/03/16 04:34:34;;;;;;;79.60;18.95;;;;;;;;;;5052084;28;20233;-70
2023/03/16 04:37:02;;;;;;;81.03;19.52;;;;;;;;;;5052084;28;20662;-71
2023/03/16 04:39:29;;;;;;;82.57;19.38;;;;;;;;;;5051893;28;20217;-71
2023/03/16 04:41:56;;;;;;;80.43;18.80;;;;;;;;;;5051932;28;20214;-70
2023/03/16 04:44:24;;;;;;;80.53;18.67;;;;;;;;;;5051806;28;20208;-71
2023/03/16 04:46:51;;;;;;;81.95;18.80;;;;;;;;;;5051791;28;20237;-71
2023/03/16 04:49:20;;;;;;;79.15;18.13;;;;;;;;;;5051898;28;20209;-71
2023/03/16 04:51:47;;;;;;;80.68;18.15;;;;;;;;;;5051846;28;20216;-71
2023/03/16 04:54:14;;;;;;;84.63;20.35;;;;;;;;;;5051763;28;20233;-71
2023/03/16 04:56:41;;;;;;;79.18;17.38;;;;;;;;;;5051657;28;20319;-71
2023/03/16 04:59:09;;;;;;;85.38;19.40;;;;;;;;;;5051235;28;20230;-71
2023/03/16 05:01:37;;;;;;;87.00;19.33;;;;;;;;;;5051675;28;20342;-71
2023/03/16 05:04:04;;;;;;;84.18;18.85;;;;;;;;;;5051702;28;20201;-71
2023/03/16 05:06:32;;;;;;;82.68;19.20;;;;;;;;;;5051634;28;20310;-71
2023/03/16 05:09:00;;;;;;;82.32;18.23;;;;;;;;;;5051246;28;20202;-71
2023/03/16 05:11:28;;;;;;;79.50;19.08;;;;;;;;;;5051370;28;20255;-71
2023/03/16 05:13:55;;;;;;;80.18;18.63;;;;;;;;;;5051359;28;20736;-71
2023/03/16 05:16:22;;;;;;;83.93;17.20;;;;;;;;;;5051794;28;20237;-71
2023/03/16 05:18:49;;;;;;;78.53;17.67;;;;;;;;;;5051176;28;20204;-71
2023/03/16 05:21:16;;;;;;;89.07;19.60;;;;;;;;;;5051695;28;20214;-71
2023/03/16 05:23:45;;;;;;;83.75;20.38;;;;;;;;;;5051669;28;20570;-71
2023/03/16 05:26:12;;;;;;;82.72;18.50;;;;;;;;;;5051224;28;20324;-71
2023/03/16 05:28:41;;;;;;;86.00;18.02;;;;;;;;;;5051271;28;20629;-71
2023/03/16 05:31:08;;;;;;;84.32;18.95;;;;;;;;;;5051717;28;20213;-71
2023/03/16 05:33:35;;;;;;;87.68;19.30;;;;;;;;;;5051372;28;20224;-71
2023/03/16 05:36:02;;;;;;;88.80;21.55;;;;;;;;;;5051413;28;20227;-71
2023/03/16 05:38:30;;;;;;;82.32;19.85;;;;;;;;;;5050951;28;20672;-71
2023/03/16 05:41:00;;;;;;;87.40;20.35;;;;;;;;;;5051493;28;20622;-71
2023/03/16 05:43:28;;;;;;;83.10;19.95;;;;;;;;;;5051430;28;20299;-71
2023/03/16 05:45:56;;;;;;;79.95;18.25;;;;;;;;;;5051287;28;20213;-71
2023/03/16 05:48:24;;;;;;;79.03;17.88;;;;;;;;;;5051230;28;20219;-71
2023/03/16 05:50:51;;;;;;;80.35;17.52;;;;;;;;;;5050693;28;20645;-71
2023/03/16 05:53:20;;;;;;;78.93;18.45;;;;;;;;;;5050834;28;20250;-72
2023/03/16 05:55:52;;;;;;;83.85;19.70;;;;;;;;;;5051341;28;20220;-71
2023/03/16 05:58:21;;;;;;;80.47;18.25;;;;;;;;;;5050942;28;20205;-72
2023/03/16 06:00:49;;;;;;;83.25;20.42;;;;;;;;;;5051069;28;20209;-71
2023/03/16 06:03:16;;;;;;;83.28;19.70;;;;;;;;;;5051199;28;20375;-72
2023/03/16 06:05:43;;;;;;;82.28;19.40;;;;;;;;;;5050841;28;20205;-71
2023/03/16 06:08:10;;;;;;;81.10;18.70;;;;;;;;;;5051204;28;20210;-71
2023/03/16 06:10:37;;;;;;;86.25;20.67;;;;;;;;;;5051016;28;20299;-71
2023/03/16 06:13:04;;;;;;;81.53;17.95;;;;;;;;;;5052404;28;20236;-71
2023/03/16 06:15:33;;;;;;;83.43;19.13;;;;;;;;;;5054692;28;20206;-71
2023/03/16 06:18:00;;;;;;;81.35;19.77;;;;;;;;;;5054619;28;20229;-71
2023/03/16 06:20:27;;;;;;;83.13;18.92;;;;;;;;;;5054705;28;20700;-71
2023/03/16 06:22:54;;;;;;;81.03;19.88;;;;;;;;;;5054835;28;20442;-71
2023/03/16 06:25:22;;;;;;;83.43;19.08;;;;;;;;;;5054846;28;20209;-71
2023/03/16 06:27:50;;;;;;;84.32;19.02;;;;;;;;;;5055082;28;20324;-71
2023/03/16 06:30:17;;;;;;;82.13;20.15;;;;;;;;;;5054106;28;20706;-71
2023/03/16 06:32:45;;;;;;;85.95;19.95;;;;;;;;;;5054166;28;20216;-71
2023/03/16 06:35:13;;;;;;;79.43;19.70;;;;;;;;;;5054470;28;20581;-71
2023/03/16 06:37:41;;;;;;;82.97;19.63;;;;;;;;;;5054693;28;20225;-71
2023/03/16 06:40:08;;;;;;;80.97;19.65;;;;;;;;;;5053845;28;20202;-71
2023/03/16 06:42:35;;;;;;;79.07;17.88;;;;;;;;;;5054702;28;20643;-71
2023/03/16 06:45:02;;;;;;;89.40;20.33;;;;;;;;;;5054102;28;20206;-71
2023/03/16 06:47:30;;;;;;;83.90;19.98;;;;;;;;;;5054061;28;20737;-71
2023/03/16 06:49:59;;;;;;;80.32;19.23;;;;;;;;;;5053707;28;20213;-71
2023/03/16 06:52:26;;;;;;;81.45;18.60;;;;;;;;;;5054368;28;20209;-71
2023/03/16 06:54:53;;;;;;;85.90;19.42;;;;;;;;;;5053919;28;20240;-72
2023/03/16 06:57:20;;;;;;;81.13;20.17;;;;;;;;;;5054088;28;20241;-71
2023/03/16 06:59:47;;;;;;;78.95;17.95;;;;;;;;;;5053513;28;20213;-71
2023/03/16 07:02:15;;;;;;;82.90;17.90;;;;;;;;;;5054033;28;20618;-71
2023/03/16 07:04:42;;;;;;;78.88;17.73;;;;;;;;;;5054027;28;20210;-71
2023/03/16 07:07:11;;;;;;;76.95;17.65;;;;;;;;;;5053618;28;20230;-71
2023/03/16 07:09:39;;;;;;;79.90;19.52;;;;;;;;;;5053163;28;20221;-71
2023/03/16 07:12:06;;;;;;;85.78;19.85;;;;;;;;;;5053780;28;20216;-71
2023/03/16 07:14:33;;;;;;;78.18;17.10;;;;;;;;;;5053447;28;20233;-71
2023/03/16 07:17:00;;;;;;;79.25;18.20;;;;;;;;;;5053833;28;20598;-72
2023/03/16 07:19:27;;;;;;;78.90;18.52;;;;;;;;;;5053472;28;20662;-71
2023/03/16 07:21:54;;;;;;;76.25;17.02;;;;;;;;;;5053572;28;20212;-72
2023/03/16 07:24:23;;;;;;;79.93;18.65;;;;;;;;;;5052833;28;20209;-71
2023/03/16 07:26:51;;;;;;;78.70;18.42;;;;;;;;;;5053296;28;20275;-71
2023/03/16 07:29:19;;;;;;;78.85;18.67;;;;;;;;;;5053294;28;20209;-72
2023/03/16 07:31:46;;;;;;;81.20;18.27;;;;;;;;;;5053558;28;20205;-72
2023/03/16 07:34:13;;;;;;;80.93;18.40;;;;;;;;;;5053131;28;20711;-72
2023/03/16 07:36:40;;;;;;;79.20;18.20;;;;;;;;;;5053142;28;20232;-71
2023/03/16 07:39:07;;;;;;;78.65;19.17;;;;;;;;;;5052832;28;20212;-72
2023/03/16 07:41:35;;;;;;;81.72;20.08;;;;;;;;;;5053125;28;20202;-72
2023/03/16 07:44:03;;;;;;;77.95;17.92;;;;;;;;;;5053400;28;20861;-72
2023/03/16 07:46:31;;;;;;;76.22;17.33;;;;;;;;;;5053337;28;20238;-72
2023/03/16 07:48:58;;;;;;;80.72;18.17;;;;;;;;;;5052819;28;20263;-72
2023/03/16 07:51:25;;;;;;;78.13;17.48;;;;;;;;;;5053390;28;20202;-72
2023/03/16 07:53:52;;;;;;;78.00;18.73;;;;;;;;;;5053074;28;20716;-72
2023/03/16 07:56:20;;;;;;;77.18;17.73;;;;;;;;;;5052728;28;20237;-72
2023/03/16 07:58:48;;;;;;;79.88;19.20;;;;;;;;;;5052842;28;20248;-71
2023/03/16 08:01:15;;;;;;;76.28;18.35;;;;;;;;;;5052818;28;20667;-72
2023/03/16 08:03:43;;;;;;;73.85;16.17;;;;;;;;;;5053021;28;20212;-72
2023/03/16 08:06:10;;;;;;;76.03;16.52;;;;;;;;;;5052679;28;20226;-72
2023/03/16 08:08:38;;;;;;;77.20;17.58;;;;;;;;;;5052279;28;20205;-72
2023/03/16 08:11:05;;;;;;;74.10;15.82;;;;;;;;;;5052970;28;20209;-72
2023/03/16 08:13:34;;;;;;;73.18;16.73;;;;;;;;;;5053047;28;20558;-72
2023/03/16 08:16:04;;;;;;;73.95;15.25;;;;;;;;;;5052538;28;20706;-72
2023/03/16 08:18:31;;;;;;;72.97;13.93;;;;;;;;;;5052556;28;20221;-72
2023/03/16 08:20:59;;;;;;;74.45;14.77;;;;;;;;;;5052652;28;20206;-72
2023/03/16 08:23:28;;;;;;;73.65;15.82;;;;;;;;;;5052139;28;20209;-72
2023/03/16 08:25:55;;;;;;;72.68;15.63;;;;;;;;;;5052432;28;20202;-72
2023/03/16 08:28:24;;;;;;;74.43;15.20;;;;;;;;;;5052302;28;20202;-72
2023/03/16 08:30:52;;;;;;;71.88;14.15;;;;;;;;;;5052521;28;20683;-72
2023/03/16 08:33:21;;;;;;;72.40;13.15;;;;;;;;;;5052138;28;20263;-72
2023/03/16 08:35:48;;;;;;;71.18;14.70;;;;;;;;;;5051493;28;20221;-72
2023/03/16 08:38:16;;;;;;;70.75;13.90;;;;;;;;;;5052220;28;20214;-72
2023/03/16 08:40:46;;;;;;;68.25;12.13;;;;;;;;;;5051701;28;20213;-72
2023/03/16 08:43:13;;;;;;;69.68;13.70;;;;;;;;;;5051954;28;20701;-70
2023/03/16 08:45:41;;;;;;;72.20;12.48;;;;;;;;;;5051724;28;20205;-70
2023/03/16 08:48:11;;;;;;;69.05;12.10;;;;;;;;;;5051889;28;20206;-71
2023/03/16 08:50:40;;;;;;;70.15;12.95;;;;;;;;;;5051665;28;20271;-71
2023/03/16 08:53:08;;;;;;;68.85;13.13;;;;;;;;;;5051941;28;20589;-71
2023/03/16 08:55:35;;;;;;;69.05;11.63;;;;;;;;;;5051871;28;20221;-71
2023/03/16 08:58:02;;;;;;;69.38;12.30;;;;;;;;;;5051671;28;20226;-71
2023/03/16 09:00:30;;;;;;;68.75;11.85;;;;;;;;;;5051391;28;20208;-71
2023/03/16 09:02:57;;;;;;;67.88;11.10;;;;;;;;;;5051668;28;20751;-71
2023/03/16 09:05:25;;;;;;;70.05;10.60;;;;;;;;;;5052075;28;20206;-71
2023/03/16 09:07:54;;;;;;;68.10;12.10;;;;;;;;;;5051787;28;20229;-71
2023/03/16 09:10:21;;;;;;;67.10;11.57;;;;;;;;;;5051222;28;20448;-71
2023/03/16 09:12:50;;;;;;;67.80;11.40;;;;;;;;;;5051870;28;20201;-71
2023/03/16 09:15:18;;;;;;;67.70;11.30;;;;;;;;;;5051515;28;20222;-72
2023/03/16 09:17:45;;;;;;;69.70;10.85;;;;;;;;;;5051966;28;20228;-72
2023/03/16 09:20:14;;;;;;;66.40;10.23;;;;;;;;;;5051330;28;20228;-71
2023/03/16 09:22:42;;;;;;;66.30;10.20;;;;;;;;;;5049347;28;20452;-70
2023/03/16 09:25:11;;;;;;;68.10;10.02;;;;;;;;;;5051366;28;20479;-69
2023/03/16 09:27:38;;;;;;;67.80;10.03;;;;;;;;;;5051213;28;20647;-70
2023/03/16 09:30:06;;;;;;;66.17;10.43;;;;;;;;;;5050882;28;20448;-71
2023/03/16 09:32:33;;;;;;;66.23;9.00;;;;;;;;;;5051492;28;20456;-70
2023/03/16 09:35:01;;;;;;;65.73;10.63;;;;;;;;;;5051479;28;20567;-71
2023/03/16 09:37:28;;;;;;;65.10;10.70;;;;;;;;;;5051115;28;20541;-70
2023/03/16 09:39:55;;;;;;;63.37;9.50;;;;;;;;;;5051252;28;20475;-70
2023/03/16 09:42:27;;;;;;;67.23;8.57;;;;;;;;;;5051043;28;20527;-71
2023/03/16 09:45:00;;;;;;;66.50;9.00;;;;;;;;;;5051489;28;20455;-71
2023/03/16 09:47:29;;;;;;;63.30;8.63;;;;;;;;;;5051552;28;20491;-69
2023/03/16 09:49:57;;;;;;;65.40;8.60;;;;;;;;;;5054798;28;20799;-70
2023/03/16 09:52:30;;;;;;;65.00;8.27;;;;;;;;;;5054958;28;20452;-69
2023/03/16 09:54:58;;;;;;;65.37;7.97;;;;;;;;;;5055098;28;20464;-72
2023/03/16 09:57:28;;;;;;;64.17;7.37;;;;;;;;;;5055066;28;20464;-71
2023/03/16 09:59:56;;;;;;;63.27;7.77;;;;;;;;;;5052914;28;20815;-71
2023/03/16 10:02:45;;;;;;;70.20;11.40;;;;;;;;;;5055016;28;20885;-72
2023/03/16 10:05:13;;;;;;;65.40;7.77;;;;;;;;;;5054728;28;20455;-71
2023/03/16 10:07:44;;;;;;;63.70;6.83;;;;;;;;;;5054652;28;20840;-71
2023/03/16 10:10:21;;;;;;;62.47;7.77;;;;;;;;;;5054487;28;20462;-71
2023/03/16 10:12:51;;;;;;;62.90;7.30;;;;;;;;;;5054995;28;20459;-72
2023/03/16 10:15:19;;;;;;;62.23;7.60;;;;;;;;;;5054588;28;20559;-72
2023/03/16 10:17:49;;;;;;;61.00;7.10;;;;;;;;;;5054046;28;20514;-72
2023/03/16 10:20:17;;;;;;;62.97;8.33;;;;;;;;;;5054555;28;20465;-72
2023/03/16 10:22:45;;;;;;;63.60;7.10;;;;;;;;;;5054571;28;20553;-72
2023/03/16 10:25:17;;;;;;;60.20;6.20;;;;;;;;;;5054255;28;20962;-72
2023/03/16 10:27:45;;;;;;;61.10;6.50;;;;;;;;;;5054237;28;20837;-71
2023/03/16 10:30:20;;;;;;;62.67;6.07;;;;;;;;;;5053901;28;20492;-70
2023/03/16 10:32:48;;;;;;;63.10;6.70;;;;;;;;;;5054539;28;20448;-71
2023/03/16 10:35:19;;;;;;;61.80;6.43;;;;;;;;;;5054203;28;20491;-71
2023/03/16 10:37:47;;;;;;;61.50;6.30;;;;;;;;;;5054405;28;20490;-71
2023/03/16 10:40:15;;;;;;;61.80;5.97;;;;;;;;;;5054207;28;20547;-70
2023/03/16 10:42:42;;;;;;;61.20;7.20;;;;;;;;;;5053954;28;20448;-71
2023/03/16 10:45:21;;;;;;;61.63;5.93;;;;;;;;;;5054126;28;20448;-71
2023/03/16 10:47:49;;;;;;;61.07;6.10;;;;;;;;;;5054308;28;20475;-71
2023/03/16 10:50:17;;;;;;;62.97;7.20;;;;;;;;;;5053539;28;20792;-70
2023/03/16 10:52:45;;;;;;;60.80;6.00;;;;;;;;;;5053846;28;20450;-71
2023/03/16 10:55:17;;;;;;;60.27;5.87;;;;;;;;;;5053684;28;20482;-70
2023/03/16 10:57:48;;;;;;;60.67;6.13;;;;;;;;;;5052076;28;21019;-72
2023/03/16 11:00:19;;;;;;;60.17;5.53;;;;;;;;;;5053320;28;20459;-73
2023/03/16 11:02:46;;;;;;;63.97;6.17;;;;;;;;;;5053712;28;20455;-71
2023/03/16 11:05:16;;;;;;;61.70;5.80;;;;;;;;;;5053737;28;20555;-71
2023/03/16 11:07:50;;;;;;;61.13;6.50;;;;;;;;;;5053329;28;21030;-71
2023/03/16 11:10:26;;;;;;;59.10;5.20;;;;;;;;;;5053033;28;20452;-72
2023/03/16 11:12:54;;;;;;;59.53;4.80;;;;;;;;;;5054076;28;20476;-70
2023/03/16 11:15:21;;;;;;;60.90;6.13;;;;;;;;;;5053669;28;20484;-70
2023/03/16 11:17:50;;;;;;;61.67;5.40;;;;;;;;;;5053261;28;20469;-70
2023/03/16 11:20:22;;;;;;;59.97;5.17;;;;;;;;;;5052600;28;20886;-70
2023/03/16 11:22:50;;;;;;;61.83;5.17;;;;;;;;;;5053277;28;20797;-70
2023/03/16 11:25:20;;;;;;;59.47;4.80;;;;;;;;;;5053573;28;20448;-70
2023/03/16 11:27:50;;;;;;;60.67;5.37;;;;;;;;;;5053073;28;20476;-70
2023/03/16 11:30:20;;;;;;;59.50;4.73;;;;;;;;;;5051326;28;20483;-70
2023/03/16 11:32:49;;;;;;;60.07;5.27;;;;;;;;;;5052915;28;20458;-70
2023/03/16 11:35:18;;;;;;;62.50;5.57;;;;;;;;;;5053051;28;20566;-71
2023/03/16 11:38:03;;;;;;;62.07;5.13;;;;;;;;;;5053027;28;20464;-71
2023/03/16 11:40:37;;;;;;;60.60;5.60;;;;;;;;;;5052789;28;20832;-70
2023/03/16 11:43:14;;;;;;;59.47;4.90;;;;;;;;;;5052766;28;20474;-71
2023/03/16 11:45:46;;;;;;;59.17;4.50;;;;;;;;;;5052682;28;20498;-71
2023/03/16 11:48:35;;;;;;;60.93;4.60;;;;;;;;;;5052985;28;20824;-70
2023/03/16 11:51:09;;;;;;;60.00;4.70;;;;;;;;;;5047006;28;20564;-69
2023/03/16 11:53:43;;;;;;;60.20;4.97;;;;;;;;;;5052512;28;20971;-69
2023/03/16 11:56:16;;;;;;;59.20;4.60;;;;;;;;;;5052852;28;20494;-70
2023/03/16 11:58:50;;;;;;;59.00;4.90;;;;;;;;;;5052425;28;20951;-71
2023/03/16 12:01:21;;;;;;;59.27;5.13;;;;;;;;;;5052597;28;20510;-71
2023/03/16 12:04:02;;;;;;;59.53;4.50;;;;;;;;;;5052618;28;20452;-71
2023/03/16 12:06:39;;;;;;;59.37;4.80;;;;;;;;;;5052614;28;20980;-70
2023/03/16 12:09:18;;;;;;;60.37;4.83;;;;;;;;;;5050358;28;20494;-70
2023/03/16 12:11:49;;;;;;;59.17;4.40;;;;;;;;;;5052187;28;20591;-71
2023/03/16 12:14:19;;;;;;;60.40;4.70;;;;;;;;;;5052854;28;20433;-70
2023/03/16 12:16:48;;;;;;;59.30;4.13;;;;;;;;;;5052332;28;20993;-71
2023/03/16 12:19:20;;;;;;;58.70;4.20;;;;;;;;;;5051789;28;20468;-71
2023/03/16 12:21:49;;;;;;;59.93;4.67;;;;;;;;;;5052247;28;20471;-71
2023/03/16 12:24:20;;;;;;;61.40;4.50;;;;;;;;;;5052026;28;20449;-71
2023/03/16 12:26:48;;;;;;;62.90;9.30;;;;;;;;;;5051809;28;20457;-71
2023/03/16 12:29:20;;;;;;;61.23;4.80;;;;;;;;;;5052459;28;20859;-71
2023/03/16 12:31:50;;;;;;;59.40;4.23;;;;;;;;;;5053302;28;20452;-72
2023/03/16 12:34:24;;;;;;;62.63;4.30;;;;;;;;;;5052887;28;20516;-72
2023/03/16 12:36:56;;;;;;;58.30;4.10;;;;;;;;;;5052824;28;20522;-71
2023/03/16 12:39:33;;;;;;;59.30;3.70;;;;;;;;;;5052341;28;20467;-71
2023/03/16 12:42:04;;;;;;;60.17;4.10;;;;;;;;;;5053094;28;20474;-71
2023/03/16 12:44:35;;;;;;;59.40;4.87;;;;;;;;;;5050458;28;20865;-72
2023/03/16 12:47:07;;;;;;;58.73;4.00;;;;;;;;;;5052326;28;20472;-72
2023/03/16 12:49:37;;;;;;;58.30;3.77;;;;;;;;;;5052235;28;20432;-72
2023/03/16 12:52:05;;;;;;;59.87;4.57;;;;;;;;;;5051926;28;20452;-71
2023/03/16 12:54:34;;;;;;;58.67;4.07;;;;;;;;;;5052044;28;20798;-71
2023/03/16 12:57:03;;;;;;;59.60;4.20;;;;;;;;;;5051550;28;20872;-71
2023/03/16 12:59:41;;;;;;;59.20;4.40;;;;;;;;;;5051102;28;20965;-71
2023/03/16 13:02:13;;;;;;;59.70;5.00;;;;;;;;;;5051358;28;20510;-71
2023/03/16 13:04:41;;;;;;;59.00;4.60;;;;;;;;;;5051932;28;20873;-72
2023/03/16 13:07:10;;;;;;;63.50;6.00;;;;;;;;;;5051742;28;20468;-74
2023/03/16 13:09:42;;;;;;;59.83;4.83;;;;;;;;;;5051212;28;20451;-71
2023/03/16 13:12:09;;;;;;;61.67;4.23;;;;;;;;;;5051440;28;20444;-71
2023/03/16 13:14:39;;;;;;;58.40;3.60;;;;;;;;;;5049569;28;20810;-72
2023/03/16 13:17:07;;;;;;;62.83;4.37;;;;;;;;;;5051126;28;20586;-71
2023/03/16 13:19:36;;;;;;;58.80;4.37;;;;;;;;;;5051295;28;20448;-71
2023/03/16 13:22:19;;;;;;;58.50;4.33;;;;;;;;;;5051513;28;20483;-71
2023/03/16 13:24:53;;;;;;;61.03;4.60;;;;;;;;;;5055496;28;20458;-72
2023/03/16 13:27:22;;;;;;;59.80;4.23;;;;;;;;;;5055194;28;20468;-71
2023/03/16 13:29:56;;;;;;;58.77;4.00;;;;;;;;;;5055058;28;20462;-71
2023/03/16 13:32:25;;;;;;;59.47;4.20;;;;;;;;;;5055450;28;20448;-72
2023/03/16 13:34:53;;;;;;;59.23;3.70;;;;;;;;;;5055062;28;20515;-71
2023/03/16 13:37:22;;;;;;;59.77;3.97;;;;;;;;;;5054985;28;20484;-71
2023/03/16 13:39:54;;;;;;;59.60;4.80;;;;;;;;;;5054869;28;20452;-71
2023/03/16 13:42:22;;;;;;;58.50;4.53;;;;;;;;;;5054960;28;20998;-71
2023/03/16 13:44:49;;;;;;;61.00;4.13;;;;;;;;;;5055082;28;20455;-71
2023/03/16 13:47:17;;;;;;;60.00;5.20;;;;;;;;;;5039535;28;20484;-71
2023/03/16 13:49:45;;;;;;;58.83;4.07;;;;;;;;;;5037916;28;20458;-71
2023/03/16 13:52:16;;;;;;;59.00;4.97;;;;;;;;;;5055190;28;20543;-71
2023/03/16 13:54:43;;;;;;;59.90;4.57;;;;;;;;;;5054950;28;20513;-71
2023/03/16 13:57:13;;;;;;;60.97;4.90;;;;;;;;;;5054729;28;20491;-71
2023/03/16 13:59:42;;;;;;;59.37;4.27;;;;;;;;;;5054812;28;20462;-71
2023/03/16 14:02:16;;;;;;;59.87;4.20;;;;;;;;;;5054820;28;20448;-71
2023/03/16 14:04:43;;;;;;;58.77;3.90;;;;;;;;;;5054587;28;20470;-71
2023/03/16 14:07:16;;;;;;;59.90;4.13;;;;;;;;;;5054564;28;20828;-71
2023/03/16 14:09:44;;;;;;;58.57;3.90;;;;;;;;;;5054513;28;20451;-72
2023/03/16 14:12:14;;;;;;;60.60;4.70;;;;;;;;;;5054400;28;20480;-71
2023/03/16 14:14:41;;;;;;;64.70;9.10;;;;;;;;;;5054528;28;20459;-71
2023/03/16 14:17:11;;;;;;;58.73;4.00;;;;;;;;;;5052602;28;21014;-71
2023/03/16 14:19:43;;;;;;;61.67;6.73;;;;;;;;;;5054047;28;21113;-72
2023/03/16 14:22:14;;;;;;;60.07;4.10;;;;;;;;;;5054501;28;20487;-72
2023/03/16 14:24:43;;;;;;;58.27;4.10;;;;;;;;;;5054456;28;20460;-71
2023/03/16 14:27:10;;;;;;;58.70;4.40;;;;;;;;;;5054463;28;20483;-72
2023/03/16 14:29:42;;;;;;;60.80;4.83;;;;;;;;;;5054075;28;20821;-72
2023/03/16 14:32:22;;;;;;;59.27;4.30;;;;;;;;;;5054630;28;20432;-71